sensor_id;sensor_type;location;lat;lon;timestamp;pressure;altitude;pressure_sealevel;temperature;humidity
30421;BME280;17218;54.070;10.012;2023-03-14T00:01:35;98461.97;;;9.26;100.00
30421;BME280;17218;54.070;10.012;2023-03-14T00:04:03;98465.34;;;9.28;100.00
30421;BME280;17218;54.070;10.012;2023-03-14T00:06:30;98466.16;;;9.28;100.00
30421;BME280;17218;54.070;10.012;2023-03-14T00:08:58;98468.06;;;9.23;100.00
30421;BME280;17218;54.070;10.012;2023-03-14T00:11:25;98469.00;;;9.22;100.00
30421;BME280;17218;54.070;10.012;2023-03-14T00:13:52;98462.09;;;9.23;100.00
30421;BME280;17218;54.070;10.012;2023-03-14T00:16:19;98456.94;;;9.23;100.00
30421;BME280;17218;54.070;10.012;2023-03-14T00:18:46;98455.00;;;9.28;100.00
30421;BME280;17218;54.070;10.012;2023-03-14T00:21:13;98437.94;;;9.24;100.00
30421;BME280;17218;54.070;10.012;2023-03-14T00:23:41;98448.13;;;9.27;100.00
30421;BME280;17218;54.070;10.012;2023-03-14T00:26:11;98448.91;;;9.29;100.00
30421;BME280;17218;54.070;10.012;2023-03-14T00:28:39;98449.56;;;9.34;100.00
30421;BME280;17218;54.070;10.012;2023-03-14T00:31:06;98452.22;;;9.33;100.00
30421;BME280;17218;54.070;10.012;2023-03-14T00:33:33;98441.94;;;9.31;100.00
30421;BME280;17218;54.070;10.012;2023-03-14T00:36:01;98440.22;;;9.32;100.00
30421;BME280;17218;54.070;10.012;2023-03-14T00:38:30;98447.19;;;9.29;100.00
30421;BME280;17218;54.070;10.012;2023-03-14T00:40:56;98439.56;;;9.26;100.00
30421;BME280;17218;54.070;10.012;2023-03-14T00:43:24;98449.69;;;9.31;100.00
30421;BME280;17218;54.070;10.012;2023-03-14T00:45:51;98455.78;;;9.30;100.00
30421;BME280;17218;54.070;10.012;2023-03-14T00:48:19;98448.06;;;9.28;100.00
30421;BME280;17218;54.070;10.012;2023-03-14T00:50:46;98441.09;;;9.30;100.00
30421;BME280;17218;54.070;10.012;2023-03-14T00:53:12;98438.78;;;9.24;100.00
30421;BME280;17218;54.070;10.012;2023-03-14T00:55:40;98436.19;;;9.24;100.00
30421;BME280;17218;54.070;10.012;2023-03-14T00:58:07;98423.34;;;9.23;100.00
30421;BME280;17218;54.070;10.012;2023-03-14T01:00:36;98423.78;;;9.10;100.00
30421;BME280;17218;54.070;10.012;2023-03-14T01:03:03;98427.88;;;9.16;100.00
30421;BME280;17218;54.070;10.012;2023-03-14T01:05:30;98421.06;;;9.15;100.00
30421;BME280;17218;54.070;10.012;2023-03-14T01:07:56;98419.34;;;9.14;100.00
30421;BME280;17218;54.070;10.012;2023-03-14T01:10:23;98415.94;;;9.13;100.00
30421;BME280;17218;54.070;10.012;2023-03-14T01:12:50;98418.47;;;9.15;100.00
30421;BME280;17218;54.070;10.012;2023-03-14T01:15:16;98428.06;;;9.11;100.00
30421;BME280;17218;54.070;10.012;2023-03-14T01:17:44;98418.88;;;9.04;100.00
30421;BME280;17218;54.070;10.012;2023-03-14T01:20:12;98417.81;;;9.10;100.00
30421;BME280;17218;54.070;10.012;2023-03-14T01:22:41;98423.50;;;9.18;100.00
30421;BME280;17218;54.070;10.012;2023-03-14T01:25:10;98407.00;;;9.22;100.00
30421;BME280;17218;54.070;10.012;2023-03-14T01:27:37;98418.75;;;9.29;100.00
30421;BME280;17218;54.070;10.012;2023-03-14T01:30:04;98441.75;;;9.36;100.00
30421;BME280;17218;54.070;10.012;2023-03-14T01:32:33;98427.25;;;9.33;100.00
30421;BME280;17218;54.070;10.012;2023-03-14T01:35:01;98426.31;;;9.34;100.00
30421;BME280;17218;54.070;10.012;2023-03-14T01:37:27;98430.41;;;9.40;100.00
30421;BME280;17218;54.070;10.012;2023-03-14T01:39:54;98448.25;;;9.46;100.00
30421;BME280;17218;54.070;10.012;2023-03-14T01:42:20;98441.28;;;9.48;100.00
30421;BME280;17218;54.070;10.012;2023-03-14T01:44:52;98430.91;;;9.50;100.00
30421;BME280;17218;54.070;10.012;2023-03-14T01:47:19;98414.53;;;9.49;100.00
30421;BME280;17218;54.070;10.012;2023-03-14T01:49:48;98416.41;;;9.46;100.00
30421;BME280;17218;54.070;10.012;2023-03-14T01:52:20;98418.91;;;9.47;100.00
30421;BME280;17218;54.070;10.012;2023-03-14T01:54:51;98406.31;;;9.39;100.00
30421;BME280;17218;54.070;10.012;2023-03-14T01:57:21;98399.28;;;9.43;100.00
30421;BME280;17218;54.070;10.012;2023-03-14T01:59:52;98389.59;;;9.48;100.00
30421;BME280;17218;54.070;10.012;2023-03-14T02:02:21;98371.97;;;9.58;100.00
30421;BME280;17218;54.070;10.012;2023-03-14T02:04:48;98381.41;;;9.59;100.00
30421;BME280;17218;54.070;10.012;2023-03-14T02:07:19;98370.09;;;9.62;100.00
30421;BME280;17218;54.070;10.012;2023-03-14T02:09:48;98354.47;;;9.65;100.00
30421;BME280;17218;54.070;10.012;2023-03-14T02:12:16;98355.19;;;9.69;100.00
30421;BME280;17218;54.070;10.012;2023-03-14T02:14:44;98354.47;;;9.65;100.00
30421;BME280;17218;54.070;10.012;2023-03-14T02:17:13;98360.59;;;9.62;100.00
30421;BME280;17218;54.070;10.012;2023-03-14T02:19:50;98368.28;;;9.64;100.00
30421;BME280;17218;54.070;10.012;2023-03-14T02:22:21;98360.59;;;9.62;100.00
30421;BME280;17218;54.070;10.012;2023-03-14T02:24:54;98354.34;;;9.68;100.00
30421;BME280;17218;54.070;10.012;2023-03-14T02:27:25;98356.16;;;9.66;100.00
30421;BME280;17218;54.070;10.012;2023-03-14T02:29:54;98358.72;;;9.66;100.00
30421;BME280;17218;54.070;10.012;2023-03-14T02:32:24;98351.63;;;9.71;100.00
30421;BME280;17218;54.070;10.012;2023-03-14T02:34:53;98350.72;;;9.72;100.00
30421;BME280;17218;54.070;10.012;2023-03-14T02:37:22;98324.88;;;9.72;100.00
30421;BME280;17218;54.070;10.012;2023-03-14T02:39:49;98332.56;;;9.74;100.00
30421;BME280;17218;54.070;10.012;2023-03-14T02:42:16;98320.47;;;9.74;100.00
30421;BME280;17218;54.070;10.012;2023-03-14T02:44:53;98315.41;;;9.71;100.00
30421;BME280;17218;54.070;10.012;2023-03-14T02:47:26;98317.19;;;9.71;100.00
30421;BME280;17218;54.070;10.012;2023-03-14T02:49:58;98307.72;;;9.70;100.00
30421;BME280;17218;54.070;10.012;2023-03-14T02:52:25;98313.13;;;9.65;100.00
30421;BME280;17218;54.070;10.012;2023-03-14T02:54:52;98313.94;;;9.65;100.00
30421;BME280;17218;54.070;10.012;2023-03-14T02:57:18;98308.19;;;9.80;100.00
30421;BME280;17218;54.070;10.012;2023-03-14T02:59:44;98309.75;;;9.84;100.00
30421;BME280;17218;54.070;10.012;2023-03-14T03:02:12;98307.97;;;9.84;100.00
30421;BME280;17218;54.070;10.012;2023-03-14T03:04:39;98312.44;;;9.81;100.00
30421;BME280;17218;54.070;10.012;2023-03-14T03:07:05;98314.19;;;9.80;100.00
30421;BME280;17218;54.070;10.012;2023-03-14T03:09:32;98317.13;;;9.72;100.00
30421;BME280;17218;54.070;10.012;2023-03-14T03:11:58;98311.03;;;9.73;100.00
30421;BME280;17218;54.070;10.012;2023-03-14T03:14:25;98315.31;;;9.74;100.00
30421;BME280;17218;54.070;10.012;2023-03-14T03:16:51;98316.00;;;9.78;100.00
30421;BME280;17218;54.070;10.012;2023-03-14T03:19:19;98315.31;;;9.74;100.00
30421;BME280;17218;54.070;10.012;2023-03-14T03:21:46;98309.16;;;9.77;100.00
30421;BME280;17218;54.070;10.012;2023-03-14T03:24:13;98314.59;;;9.71;100.00
30421;BME280;17218;54.070;10.012;2023-03-14T03:26:40;98309.28;;;9.74;100.00
30421;BME280;17218;54.070;10.012;2023-03-14T03:29:06;98316.13;;;9.75;100.00
30421;BME280;17218;54.070;10.012;2023-03-14T03:31:33;98310.25;;;9.71;100.00
30421;BME280;17218;54.070;10.012;2023-03-14T03:33:59;98300.75;;;9.72;100.00
30421;BME280;17218;54.070;10.012;2023-03-14T03:36:27;98295.44;;;9.75;100.00
30421;BME280;17218;54.070;10.012;2023-03-14T03:38:53;98294.63;;;9.74;100.00
30421;BME280;17218;54.070;10.012;2023-03-14T03:41:20;98290.41;;;9.72;100.00
30421;BME280;17218;54.070;10.012;2023-03-14T03:43:46;98309.06;;;9.78;100.00
30421;BME280;17218;54.070;10.012;2023-03-14T03:46:13;98315.56;;;9.47;100.00
30421;BME280;17218;54.070;10.012;2023-03-14T03:48:39;98317.22;;;9.27;100.00
30421;BME280;17218;54.070;10.012;2023-03-14T03:51:06;98329.56;;;9.21;100.00
30421;BME280;17218;54.070;10.012;2023-03-14T03:53:34;98324.94;;;9.06;100.00
30421;BME280;17218;54.070;10.012;2023-03-14T03:56:00;98347.34;;;9.06;100.00
30421;BME280;17218;54.070;10.012;2023-03-14T03:58:27;98348.09;;;9.08;100.00
30421;BME280;17218;54.070;10.012;2023-03-14T04:00:54;98350.81;;;9.05;100.00
30421;BME280;17218;54.070;10.012;2023-03-14T04:03:20;98359.13;;;8.91;100.00
30421;BME280;17218;54.070;10.012;2023-03-14T04:05:57;98346.31;;;8.88;100.00
30421;BME280;17218;54.070;10.012;2023-03-14T04:08:23;98347.44;;;8.80;100.00
30421;BME280;17218;54.070;10.012;2023-03-14T04:10:54;98347.69;;;8.74;100.00
30421;BME280;17218;54.070;10.012;2023-03-14T04:13:21;98341.69;;;8.74;100.00
30421;BME280;17218;54.070;10.012;2023-03-14T04:15:47;98330.34;;;8.78;100.00
30421;BME280;17218;54.070;10.012;2023-03-14T04:18:13;98334.78;;;8.74;100.00
30421;BME280;17218;54.070;10.012;2023-03-14T04:20:40;98331.84;;;8.83;100.00
30421;BME280;17218;54.070;10.012;2023-03-14T04:23:06;98333.97;;;8.96;100.00
30421;BME280;17218;54.070;10.012;2023-03-14T04:25:33;98352.09;;;9.17;100.00
30421;BME280;17218;54.070;10.012;2023-03-14T04:28:01;98353.16;;;9.34;100.00
30421;BME280;17218;54.070;10.012;2023-03-14T04:30:29;98366.06;;;9.34;100.00
30421;BME280;17218;54.070;10.012;2023-03-14T04:32:55;98386.69;;;8.66;100.00
30421;BME280;17218;54.070;10.012;2023-03-14T04:35:22;98358.47;;;8.38;100.00
30421;BME280;17218;54.070;10.012;2023-03-14T04:37:48;98359.81;;;8.24;100.00
30421;BME280;17218;54.070;10.012;2023-03-14T04:40:17;98370.72;;;8.07;100.00
30421;BME280;17218;54.070;10.012;2023-03-14T04:42:44;98362.56;;;7.94;100.00
30421;BME280;17218;54.070;10.012;2023-03-14T04:45:12;98383.69;;;7.80;100.00
30421;BME280;17218;54.070;10.012;2023-03-14T04:47:38;98376.31;;;7.69;100.00
30421;BME280;17218;54.070;10.012;2023-03-14T04:50:05;98358.56;;;7.59;100.00
30421;BME280;17218;54.070;10.012;2023-03-14T04:52:32;98354.56;;;7.50;100.00
30421;BME280;17218;54.070;10.012;2023-03-14T04:54:58;98351.25;;;7.47;100.00
30421;BME280;17218;54.070;10.012;2023-03-14T04:57:24;98356.59;;;7.40;100.00
30421;BME280;17218;54.070;10.012;2023-03-14T04:59:51;98341.25;;;7.37;100.00
30421;BME280;17218;54.070;10.012;2023-03-14T05:02:19;98340.50;;;7.34;100.00
30421;BME280;17218;54.070;10.012;2023-03-14T05:04:45;98340.34;;;7.38;100.00
30421;BME280;17218;54.070;10.012;2023-03-14T05:07:12;98333.53;;;7.37;100.00
30421;BME280;17218;54.070;10.012;2023-03-14T05:09:38;98326.69;;;7.36;100.00
30421;BME280;17218;54.070;10.012;2023-03-14T05:12:05;98322.56;;;7.31;100.00
30421;BME280;17218;54.070;10.012;2023-03-14T05:14:31;98315.63;;;7.33;100.00
30421;BME280;17218;54.070;10.012;2023-03-14T05:16:58;98321.53;;;7.36;100.00
30421;BME280;17218;54.070;10.012;2023-03-14T05:19:26;98316.44;;;7.35;100.00
30421;BME280;17218;54.070;10.012;2023-03-14T05:21:52;98312.25;;;7.32;100.00
30421;BME280;17218;54.070;10.012;2023-03-14T05:24:19;98311.13;;;7.39;100.00
30421;BME280;17218;54.070;10.012;2023-03-14T05:26:45;98305.09;;;7.40;100.00
30421;BME280;17218;54.070;10.012;2023-03-14T05:29:12;98305.03;;;7.42;100.00
30421;BME280;17218;54.070;10.012;2023-03-14T05:31:38;98292.81;;;7.47;100.00
30421;BME280;17218;54.070;10.012;2023-03-14T05:34:05;98286.94;;;7.44;100.00
30421;BME280;17218;54.070;10.012;2023-03-14T05:36:33;98282.69;;;7.43;100.00
30421;BME280;17218;54.070;10.012;2023-03-14T05:38:59;98273.91;;;7.48;100.00
30421;BME280;17218;54.070;10.012;2023-03-14T05:41:26;98295.41;;;7.47;100.00
30421;BME280;17218;54.070;10.012;2023-03-14T05:43:52;98284.06;;;7.53;100.00
30421;BME280;17218;54.070;10.012;2023-03-14T05:46:19;98283.06;;;7.57;100.00
30421;BME280;17218;54.070;10.012;2023-03-14T05:48:45;98273.50;;;7.61;100.00
30421;BME280;17218;54.070;10.012;2023-03-14T05:51:12;98271.84;;;7.58;100.00
30421;BME280;17218;54.070;10.012;2023-03-14T05:53:39;98284.59;;;7.63;100.00
30421;BME280;17218;54.070;10.012;2023-03-14T05:56:07;98285.13;;;7.73;100.00
30421;BME280;17218;54.070;10.012;2023-03-14T05:58:33;98282.44;;;7.76;100.00
30421;BME280;17218;54.070;10.012;2023-03-14T06:01:01;98270.53;;;7.72;100.00
30421;BME280;17218;54.070;10.012;2023-03-14T06:03:28;98278.31;;;7.70;100.00
30421;BME280;17218;54.070;10.012;2023-03-14T06:05:54;98274.91;;;7.70;100.00
30421;BME280;17218;54.070;10.012;2023-03-14T06:08:21;98282.44;;;7.76;100.00
30421;BME280;17218;54.070;10.012;2023-03-14T06:10:48;98282.63;;;7.70;100.00
30421;BME280;17218;54.070;10.012;2023-03-14T06:13:15;98271.25;;;7.75;100.00
30421;BME280;17218;54.070;10.012;2023-03-14T06:15:42;98267.97;;;7.72;100.00
30421;BME280;17218;54.070;10.012;2023-03-14T06:18:08;98263.31;;;7.82;100.00
30421;BME280;17218;54.070;10.012;2023-03-14T06:20:35;98260.16;;;7.73;100.00
30421;BME280;17218;54.070;10.012;2023-03-14T06:23:04;98268.94;;;7.68;100.00
30421;BME280;17218;54.070;10.012;2023-03-14T06:25:31;98272.50;;;7.65;100.00
30421;BME280;17218;54.070;10.012;2023-03-14T06:27:59;98264.72;;;7.67;100.00
30421;BME280;17218;54.070;10.012;2023-03-14T06:30:25;98263.81;;;7.68;100.00
30421;BME280;17218;54.070;10.012;2023-03-14T06:32:52;98272.97;;;7.77;100.00
30421;BME280;17218;54.070;10.012;2023-03-14T06:35:18;98263.38;;;7.80;100.00
30421;BME280;17218;54.070;10.012;2023-03-14T06:37:45;98275.19;;;7.86;100.00
30421;BME280;17218;54.070;10.012;2023-03-14T06:40:12;98266.25;;;7.96;100.00
30421;BME280;17218;54.070;10.012;2023-03-14T06:42:42;98269.16;;;8.11;100.00
30421;BME280;17218;54.070;10.012;2023-03-14T06:45:10;98268.16;;;8.15;100.00
30421;BME280;17218;54.070;10.012;2023-03-14T06:47:37;98271.59;;;8.14;100.00
30421;BME280;17218;54.070;10.012;2023-03-14T06:50:05;98256.13;;;8.14;100.00
30421;BME280;17218;54.070;10.012;2023-03-14T06:52:31;98271.59;;;8.14;100.00
30421;BME280;17218;54.070;10.012;2023-03-14T06:54:58;98275.81;;;8.17;100.00
30421;BME280;17218;54.070;10.012;2023-03-14T06:57:24;98268.94;;;8.17;100.00
30421;BME280;17218;54.070;10.012;2023-03-14T06:59:51;98273.06;;;8.21;100.00
30421;BME280;17218;54.070;10.012;2023-03-14T07:02:19;98273.78;;;8.25;100.00
30421;BME280;17218;54.070;10.012;2023-03-14T07:04:45;98280.72;;;8.23;100.00
30421;BME280;17218;54.070;10.012;2023-03-14T07:07:12;98278.06;;;8.26;100.00
30421;BME280;17218;54.070;10.012;2023-03-14T07:09:38;98271.88;;;8.30;100.00
30421;BME280;17218;54.070;10.012;2023-03-14T07:12:05;98288.09;;;8.34;100.00
30421;BME280;17218;54.070;10.012;2023-03-14T07:14:32;98278.59;;;8.34;100.00
30421;BME280;17218;54.070;10.012;2023-03-14T07:16:58;98282.97;;;8.32;100.00
30421;BME280;17218;54.070;10.012;2023-03-14T07:19:26;98286.53;;;8.30;100.00
30421;BME280;17218;54.070;10.012;2023-03-14T07:21:52;98294.22;;;8.31;100.00
30421;BME280;17218;54.070;10.012;2023-03-14T07:24:19;98296.78;;;8.31;100.00
30421;BME280;17218;54.070;10.012;2023-03-14T07:26:45;98290.72;;;8.32;100.00
30421;BME280;17218;54.070;10.012;2023-03-14T07:29:12;98297.38;;;8.38;100.00
30421;BME280;17218;54.070;10.012;2023-03-14T07:31:38;98293.78;;;8.42;100.00
30421;BME280;17218;54.070;10.012;2023-03-14T07:34:05;98287.72;;;8.43;100.00
30421;BME280;17218;54.070;10.012;2023-03-14T07:36:33;98287.63;;;8.46;100.00
30421;BME280;17218;54.070;10.012;2023-03-14T07:38:59;98288.44;;;8.47;100.00
30421;BME280;17218;54.070;10.012;2023-03-14T07:41:25;98294.16;;;8.55;100.00
30421;BME280;17218;54.070;10.012;2023-03-14T07:43:52;98293.66;;;8.69;100.00
30421;BME280;17218;54.070;10.012;2023-03-14T07:46:18;98289.28;;;8.71;100.00
30421;BME280;17218;54.070;10.012;2023-03-14T07:48:45;98288.56;;;8.68;100.00
30421;BME280;17218;54.070;10.012;2023-03-14T07:51:11;98298.34;;;8.59;100.00
30421;BME280;17218;54.070;10.012;2023-03-14T07:53:39;98302.44;;;8.65;100.00
30421;BME280;17218;54.070;10.012;2023-03-14T07:56:06;98303.72;;;8.53;100.00
30421;BME280;17218;54.070;10.012;2023-03-14T07:58:33;98319.66;;;8.41;100.00
30421;BME280;17218;54.070;10.012;2023-03-14T08:00:59;98324.22;;;8.34;100.00
30421;BME280;17218;54.070;10.012;2023-03-14T08:03:26;98317.00;;;8.42;100.00
30421;BME280;17218;54.070;10.012;2023-03-14T08:05:53;98320.25;;;8.47;100.00
30421;BME280;17218;54.070;10.012;2023-03-14T08:08:19;98323.19;;;8.62;100.00
30421;BME280;17218;54.070;10.012;2023-03-14T08:10:47;98316.94;;;8.68;100.00
30421;BME280;17218;54.070;10.012;2023-03-14T08:13:13;98314.00;;;8.77;100.00
30421;BME280;17218;54.070;10.012;2023-03-14T08:15:40;98316.13;;;8.90;100.00
30421;BME280;17218;54.070;10.012;2023-03-14T08:18:07;98312.94;;;8.83;100.00
30421;BME280;17218;54.070;10.012;2023-03-14T08:20:33;98309.34;;;8.87;100.00
30421;BME280;17218;54.070;10.012;2023-03-14T08:23:00;98300.94;;;8.82;100.00
30421;BME280;17218;54.070;10.012;2023-03-14T08:25:28;98311.91;;;8.65;100.00
30421;BME280;17218;54.070;10.012;2023-03-14T08:27:56;98320.97;;;8.51;100.00
30421;BME280;17218;54.070;10.012;2023-03-14T08:30:23;98324.41;;;8.52;100.00
30421;BME280;17218;54.070;10.012;2023-03-14T08:32:49;98325.53;;;8.44;100.00
30421;BME280;17218;54.070;10.012;2023-03-14T08:35:16;98328.91;;;8.46;100.00
30421;BME280;17218;54.070;10.012;2023-03-14T08:37:42;98325.28;;;8.51;100.00
30421;BME280;17218;54.070;10.012;2023-03-14T08:40:10;98337.38;;;8.26;100.00
30421;BME280;17218;54.070;10.012;2023-03-14T08:42:37;98337.25;;;8.29;100.00
30421;BME280;17218;54.070;10.012;2023-03-14T08:45:07;98336.59;;;8.24;100.00
30421;BME280;17218;54.070;10.012;2023-03-14T08:47:33;98348.38;;;8.31;100.00
30421;BME280;17218;54.070;10.012;2023-03-14T08:50:00;98343.16;;;8.33;100.00
30421;BME280;17218;54.070;10.012;2023-03-14T08:52:26;98347.44;;;8.34;100.00
30421;BME280;17218;54.070;10.012;2023-03-14T08:54:53;98356.00;;;8.34;100.00
30421;BME280;17218;54.070;10.012;2023-03-14T08:57:19;98354.94;;;8.40;100.00
30421;BME280;17218;54.070;10.012;2023-03-14T08:59:47;98363.25;;;8.49;100.00
30421;BME280;17218;54.070;10.012;2023-03-14T09:02:14;98366.94;;;8.41;100.00
30421;BME280;17218;54.070;10.012;2023-03-14T09:04:41;98358.56;;;8.34;100.00
30421;BME280;17218;54.070;10.012;2023-03-14T09:07:07;98361.94;;;8.37;100.00
30421;BME280;17218;54.070;10.012;2023-03-14T09:09:34;98364.41;;;8.40;100.00
30421;BME280;17218;54.070;10.012;2023-03-14T09:12:01;98373.00;;;8.40;100.00
30421;BME280;17218;54.070;10.012;2023-03-14T09:14:27;98378.03;;;8.43;100.00
30421;BME280;17218;54.070;10.012;2023-03-14T09:16:54;98434.47;;;8.53;100.00
30421;BME280;17218;54.070;10.012;2023-03-14T09:19:21;98438.34;;;8.41;100.00
30421;BME280;17218;54.070;10.012;2023-03-14T09:21:48;98464.66;;;7.99;100.00
30421;BME280;17218;54.070;10.012;2023-03-14T09:24:15;98459.84;;;7.88;100.00
30421;BME280;17218;54.070;10.012;2023-03-14T09:26:41;98465.59;;;7.70;100.00
30421;BME280;17218;54.070;10.012;2023-03-14T09:29:08;98471.44;;;7.48;100.00
30421;BME280;17218;54.070;10.012;2023-03-14T09:31:34;98477.78;;;7.37;100.00
30421;BME280;17218;54.070;10.012;2023-03-14T09:34:01;98493.88;;;7.14;100.00
30421;BME280;17218;54.070;10.012;2023-03-14T09:36:29;98500.47;;;6.94;100.00
30421;BME280;17218;54.070;10.012;2023-03-14T09:38:56;98509.84;;;6.97;100.00
30421;BME280;17218;54.070;10.012;2023-03-14T09:41:25;98527.63;;;7.04;100.00
30421;BME280;17218;54.070;10.012;2023-03-14T09:43:59;98535.94;;;6.83;100.00
30421;BME280;17218;54.070;10.012;2023-03-14T09:46:27;98540.25;;;6.50;100.00
30421;BME280;17218;54.070;10.012;2023-03-14T09:48:54;98553.66;;;6.28;100.00
30421;BME280;17218;54.070;10.012;2023-03-14T09:51:21;98563.31;;;6.18;100.00
30421;BME280;17218;54.070;10.012;2023-03-14T09:53:50;98568.81;;;6.01;100.00
30421;BME280;17218;54.070;10.012;2023-03-14T09:56:19;98591.16;;;5.97;100.00
30421;BME280;17218;54.070;10.012;2023-03-14T09:58:50;98607.56;;;5.93;100.00
30421;BME280;17218;54.070;10.012;2023-03-14T10:01:22;98607.56;;;5.93;100.00
30421;BME280;17218;54.070;10.012;2023-03-14T10:03:50;98612.94;;;5.81;100.00
30421;BME280;17218;54.070;10.012;2023-03-14T10:06:21;98640.69;;;5.65;100.00
30421;BME280;17218;54.070;10.012;2023-03-14T10:08:51;98647.00;;;5.49;100.00
30421;BME280;17218;54.070;10.012;2023-03-14T10:11:19;98655.91;;;5.31;100.00
30421;BME280;17218;54.070;10.012;2023-03-14T10:14:02;98683.38;;;5.26;100.00
30421;BME280;17218;54.070;10.012;2023-03-14T10:16:30;98690.28;;;5.24;100.00
30421;BME280;17218;54.070;10.012;2023-03-14T10:19:03;98703.97;;;5.24;100.00
30421;BME280;17218;54.070;10.012;2023-03-14T10:21:35;98703.16;;;5.21;100.00
30421;BME280;17218;54.070;10.012;2023-03-14T10:24:27;98714.41;;;5.15;100.00
30421;BME280;17218;54.070;10.012;2023-03-14T10:26:58;98721.00;;;5.29;100.00
30421;BME280;17218;54.070;10.012;2023-03-14T10:29:26;98713.91;;;5.43;100.00
30421;BME280;17218;54.070;10.012;2023-03-14T10:31:55;98725.00;;;5.44;100.00
30421;BME280;17218;54.070;10.012;2023-03-14T10:34:25;98749.91;;;5.39;100.00
30421;BME280;17218;54.070;10.012;2023-03-14T10:36:53;98758.38;;;5.45;100.00
30421;BME280;17218;54.070;10.012;2023-03-14T10:39:49;98774.41;;;5.58;100.00
30421;BME280;17218;54.070;10.012;2023-03-14T10:42:19;98779.44;;;5.63;100.00
30421;BME280;17218;54.070;10.012;2023-03-14T10:44:51;98780.13;;;5.71;100.00
30421;BME280;17218;54.070;10.012;2023-03-14T10:47:23;98785.00;;;5.87;100.00
30421;BME280;17218;54.070;10.012;2023-03-14T10:49:50;98791.00;;;5.88;100.00
30421;BME280;17218;54.070;10.012;2023-03-14T10:52:22;98806.31;;;5.92;100.00
30421;BME280;17218;54.070;10.012;2023-03-14T10:54:55;98799.41;;;5.94;100.00
30421;BME280;17218;54.070;10.012;2023-03-14T10:57:22;98818.19;;;5.98;100.00
30421;BME280;17218;54.070;10.012;2023-03-14T10:59:49;98823.06;;;6.15;100.00
30421;BME280;17218;54.070;10.012;2023-03-14T11:05:18;98823.03;;;6.58;100.00
30421;BME280;17218;54.070;10.012;2023-03-14T11:07:47;98825.38;;;6.69;100.00
30421;BME280;17218;54.070;10.012;2023-03-14T11:10:19;98827.66;;;6.82;100.00
30421;BME280;17218;54.070;10.012;2023-03-14T11:12:55;98840.22;;;6.96;100.00
30421;BME280;17218;54.070;10.012;2023-03-14T11:15:30;98841.03;;;7.34;100.00
30421;BME280;17218;54.070;10.012;2023-03-14T11:18:16;98843.28;;;7.48;100.00
30421;BME280;17218;54.070;10.012;2023-03-14T11:20:51;98855.03;;;7.59;100.00
30421;BME280;17218;54.070;10.012;2023-03-14T11:23:21;98853.44;;;7.53;100.00
30421;BME280;17218;54.070;10.012;2023-03-14T11:25:54;98856.59;;;7.64;100.00
30421;BME280;17218;54.070;10.012;2023-03-14T11:28:26;98872.59;;;8.11;100.00
30421;BME280;17218;54.070;10.012;2023-03-14T11:31:02;98882.38;;;8.31;100.00
30421;BME280;17218;54.070;10.012;2023-03-14T11:33:35;98886.56;;;8.35;100.00
30421;BME280;17218;54.070;10.012;2023-03-14T11:36:06;98892.28;;;8.45;100.00
30421;BME280;17218;54.070;10.012;2023-03-14T11:38:37;98904.66;;;8.34;100.00
30421;BME280;17218;54.070;10.012;2023-03-14T11:41:10;98914.63;;;8.15;100.00
30421;BME280;17218;54.070;10.012;2023-03-14T11:43:39;98915.75;;;7.71;100.00
30421;BME280;17218;54.070;10.012;2023-03-14T11:46:10;98916.44;;;7.41;100.00
30421;BME280;17218;54.070;10.012;2023-03-14T11:48:44;98914.94;;;7.32;100.00
30421;BME280;17218;54.070;10.012;2023-03-14T11:51:18;98927.25;;;7.18;100.00
30421;BME280;17218;54.070;10.012;2023-03-14T11:53:53;98948.00;;;7.11;100.00
30421;BME280;17218;54.070;10.012;2023-03-14T11:56:27;98961.16;;;6.99;100.00
30421;BME280;17218;54.070;10.012;2023-03-14T11:58:58;98955.41;;;6.86;100.00
30421;BME280;17218;54.070;10.012;2023-03-14T12:01:31;98978.03;;;6.70;100.00
30421;BME280;17218;54.070;10.012;2023-03-14T12:04:05;98977.34;;;6.61;100.00
30421;BME280;17218;54.070;10.012;2023-03-14T12:06:42;98966.41;;;6.50;100.00
30421;BME280;17218;54.070;10.012;2023-03-14T12:09:12;98965.56;;;6.48;100.00
30421;BME280;17218;54.070;10.012;2023-03-14T12:11:45;98970.78;;;6.44;100.00
30421;BME280;17218;54.070;10.012;2023-03-14T12:14:22;98964.09;;;6.36;100.00
30421;BME280;17218;54.070;10.012;2023-03-14T12:16:53;98969.91;;;6.47;100.00
30421;BME280;17218;54.070;10.012;2023-03-14T12:19:37;98973.94;;;6.59;100.00
30421;BME280;17218;54.070;10.012;2023-03-14T12:22:14;98973.06;;;6.60;100.00
30421;BME280;17218;54.070;10.012;2023-03-14T12:24:46;98983.47;;;6.54;100.00
30421;BME280;17218;54.070;10.012;2023-03-14T12:27:43;98993.47;;;6.22;100.00
30421;BME280;17218;54.070;10.012;2023-03-14T12:30:18;98992.66;;;6.20;100.00
30421;BME280;17218;54.070;10.012;2023-03-14T12:33:25;99006.94;;;6.37;100.00
30421;BME280;17218;54.070;10.012;2023-03-14T12:35:57;98999.44;;;6.24;100.00
30421;BME280;17218;54.070;10.012;2023-03-14T12:38:30;99005.78;;;6.01;100.00
30421;BME280;17218;54.070;10.012;2023-03-14T12:41:02;99011.00;;;5.96;100.00
30421;BME280;17218;54.070;10.012;2023-03-14T12:43:32;99008.50;;;5.92;100.00
30421;BME280;17218;54.070;10.012;2023-03-14T12:46:08;99010.94;;;6.00;100.00
30421;BME280;17218;54.070;10.012;2023-03-14T12:48:40;99040.16;;;6.51;100.00
30421;BME280;17218;54.070;10.012;2023-03-14T12:51:12;99028.88;;;6.58;100.00
30421;BME280;17218;54.070;10.012;2023-03-14T12:53:57;99036.38;;;6.69;100.00
30421;BME280;17218;54.070;10.012;2023-03-14T12:56:41;99044.22;;;6.61;100.00
30421;BME280;17218;54.070;10.012;2023-03-14T12:59:28;99060.41;;;6.68;100.00
30421;BME280;17218;54.070;10.012;2023-03-14T13:02:00;99078.47;;;6.65;100.00